Private Wetterstation Wechselburg
Wetterdaten: Samstag, 22.09.2012
Datum Zeit Temp. +2m Bodentemp. Temp.+5cm Temp. Wind Windchill X Diff Temp. Feuchte +2m Feuchte +5cm Sonnenschein Luftdruck Regen Wind Richtung Richtung Sonnenschein UV Taupunkt Windchill Windben
22.09.2012 00:00 9,1 C 19,3 C 10,3 C 9,6 C 9,6 C 0,5 C 82 % 86 % 0 % 1012,9 hPa 0,0 l/m 0,0 km/h (0 Bft) O-NO 67 0 min 0,0 UV-I 6,2 C 9,6 C 0,0 km/h (0 Bft)
22.09.2012 00:05 9,1 C 19,3 C 10,3 C 9,7 C 9,7 C 0,6 C 82 % 86 % 0 % 1012,9 hPa 0,0 l/m 0,0 km/h (0 Bft) O-SO 112 0 min 0,0 UV-I 6,2 C 9,7 C 0,0 km/h (0 Bft)
22.09.2012 00:10 9,2 C 19,3 C 10,1 C 9,8 C 9,8 C 0,6 C 82 % 85 % 0 % 1012,9 hPa 0,0 l/m 0,0 km/h (0 Bft) O-NO 67 0 min 0,0 UV-I 6,3 C 9,8 C 0,0 km/h (0 Bft)
22.09.2012 00:15 9,2 C 19,3 C 10,1 C 9,8 C 9,8 C 0,6 C 83 % 86 % 0 % 1012,9 hPa 0,0 l/m 0,0 km/h (0 Bft) O-NO 67 0 min 0,0 UV-I 6,5 C 9,8 C 0,0 km/h (0 Bft)
22.09.2012 00:20 9,2 C 19,3 C 10,1 C 9,8 C 9,8 C 0,6 C 83 % 86 % 0 % 1012,4 hPa 0,0 l/m 0,0 km/h (0 Bft) O-NO 67 0 min 0,0 UV-I 6,5 C 9,8 C 0,0 km/h (0 Bft)
22.09.2012 00:25 9,3 C 19,3 C 10,1 C 9,8 C 9,8 C 0,5 C 83 % 86 % 0 % 1012,4 hPa 0,0 l/m 0,0 km/h (0 Bft) N-NO 22 0 min 0,0 UV-I 6,6 C 9,8 C 0,0 km/h (0 Bft)
22.09.2012 00:30 9,3 C 19,2 C 10,1 C 9,9 C 9,9 C 0,6 C 82 % 86 % 0 % 1012,4 hPa 0,0 l/m 0,0 km/h (0 Bft) N-NW 337 0 min 0,0 UV-I 6,4 C 9,9 C 0,0 km/h (0 Bft)
22.09.2012 00:35 9,2 C 19,2 C 10,1 C 9,8 C 9,8 C 0,6 C 82 % 86 % 0 % 1012,4 hPa 0,0 l/m 0,0 km/h (0 Bft) W-SW 247 0 min 0,0 UV-I 6,3 C 9,8 C 0,0 km/h (0 Bft)
22.09.2012 00:41 9,3 C 19,3 C 10,1 C 9,8 C 9,8 C 0,5 C 82 % 86 % 0 % 1011,9 hPa 0,0 l/m 0,0 km/h (0 Bft) N 0 0 min 0,0 UV-I 6,4 C 9,8 C 0,0 km/h (0 Bft)
22.09.2012 00:55 9,2 C 19,3 C 10,1 C 9,7 C 9,7 C 0,5 C 83 % 86 % 0 % 1011,9 hPa 0,0 l/m 0,0 km/h (0 Bft) NW 315 0 min 0,0 UV-I 6,5 C 9,7 C 0,0 km/h (0 Bft)
22.09.2012 01:00 9,2 C 19,3 C 10,0 C 9,7 C 9,7 C 0,5 C 83 % 86 % 0 % 1011,8 hPa 0,0 l/m 0,0 km/h (0 Bft) N-NW 337 0 min 0,0 UV-I 6,5 C 9,7 C 0,0 km/h (0 Bft)
22.09.2012 01:05 9,2 C 19,2 C 10,1 C 9,9 C 9,9 C 0,7 C 82 % 86 % 0 % 1011,8 hPa 0,0 l/m 0,0 km/h (0 Bft) NW 315 0 min 0,0 UV-I 6,3 C 9,9 C 0,0 km/h (0 Bft)
22.09.2012 01:10 9,3 C 19,2 C 10,2 C 10,0 C 10,0 C 0,7 C 82 % 86 % 0 % 1011,8 hPa 0,0 l/m 0,0 km/h (0 Bft) SW 225 0 min 0,0 UV-I 6,4 C 10,0 C 0,0 km/h (0 Bft)
22.09.2012 01:15 9,3 C 19,2 C 10,2 C 10,0 C 10,0 C 0,7 C 82 % 87 % 0 % 1011,8 hPa 0,0 l/m 0,0 km/h (0 Bft) SW 225 0 min 0,0 UV-I 6,4 C 10,0 C 0,0 km/h (0 Bft)
22.09.2012 01:20 9,3 C 19,3 C 10,2 C 9,9 C 9,9 C 0,6 C 83 % 87 % 0 % 1011,6 hPa 0,0 l/m 0,0 km/h (0 Bft) SW 225 0 min 0,0 UV-I 6,6 C 9,9 C 0,0 km/h (0 Bft)
22.09.2012 01:25 9,2 C 19,3 C 10,1 C 9,9 C 9,9 C 0,7 C 83 % 87 % 0 % 1011,6 hPa 0,0 l/m 0,0 km/h (0 Bft) SW 225 0 min 0,0 UV-I 6,5 C 9,9 C 0,0 km/h (0 Bft)
22.09.2012 01:30 9,2 C 19,3 C 10,1 C 9,9 C 9,9 C 0,7 C 83 % 87 % 0 % 1011,6 hPa 0,0 l/m 0,0 km/h (0 Bft) S 180 0 min 0,0 UV-I 6,5 C 9,9 C 0,0 km/h (0 Bft)
22.09.2012 01:35 9,2 C 19,3 C 10,1 C 9,9 C 9,9 C 0,7 C 83 % 87 % 0 % 1011,6 hPa 0,0 l/m 0,0 km/h (0 Bft) O-NO 67 0 min 0,0 UV-I 6,5 C 9,9 C 0,0 km/h (0 Bft)
22.09.2012 01:40 9,2 C 19,3 C 10,1 C 9,9 C 9,9 C 0,7 C 83 % 87 % 0 % 1011,6 hPa 0,0 l/m 0,0 km/h (0 Bft) O-NO 67 0 min 0,0 UV-I 6,5 C 9,9 C 0,0 km/h (0 Bft)
22.09.2012 01:45 9,2 C 19,3 C 10,1 C 9,9 C 9,9 C 0,7 C 83 % 87 % 0 % 1011,6 hPa 0,0 l/m 0,0 km/h (0 Bft) W 270 0 min 0,0 UV-I 6,5 C 9,9 C 0,0 km/h (0 Bft)
22.09.2012 01:50 9,2 C 19,2 C 10,1 C 9,9 C 9,9 C 0,7 C 84 % 87 % 0 % 1011,6 hPa 0,0 l/m 0,0 km/h (0 Bft) W-SW 247 0 min 0,0 UV-I 6,6 C 9,9 C 0,0 km/h (0 Bft)
22.09.2012 01:55 9,2 C 19,2 C 10,3 C 9,9 C 9,9 C 0,7 C 84 % 87 % 0 % 1011,6 hPa 0,0 l/m 0,0 km/h (0 Bft) S-SW 202 0 min 0,0 UV-I 6,6 C 9,9 C 0,0 km/h (0 Bft)
22.09.2012 02:00 9,2 C 19,2 C 10,2 C 9,9 C 9,9 C 0,7 C 84 % 87 % 0 % 1011,2 hPa 0,0 l/m 0,0 km/h (0 Bft) S 180 0 min 0,0 UV-I 6,6 C 9,9 C 0,0 km/h (0 Bft)
22.09.2012 02:05 9,2 C 19,2 C 10,1 C 10,0 C 10,0 C 0,8 C 84 % 87 % 0 % 1011,2 hPa 0,0 l/m 0,0 km/h (0 Bft) W 270 0 min 0,0 UV-I 6,6 C 10,0 C 0,0 km/h (0 Bft)
22.09.2012 02:10 9,2 C 19,2 C 10,3 C 10,0 C 10,0 C 0,8 C 84 % 88 % 0 % 1011,2 hPa 0,0 l/m 0,0 km/h (0 Bft) W-SW 247 0 min 0,0 UV-I 6,6 C 10,0 C 0,0 km/h (0 Bft)
22.09.2012 02:15 9,2 C 19,2 C 10,3 C 10,0 C 10,0 C 0,8 C 84 % 87 % 0 % 1011,2 hPa 0,0 l/m 0,0 km/h (0 Bft) O-SO 112 0 min 0,0 UV-I 6,6 C 10,0 C 0,0 km/h (0 Bft)
22.09.2012 02:20 9,3 C 19,2 C 10,3 C 10,0 C 10,0 C 0,7 C 84 % 87 % 0 % 1011,6 hPa 0,0 l/m 0,0 km/h (0 Bft) O 90 0 min 0,0 UV-I 6,7 C 10,0 C 0,0 km/h (0 Bft)
22.09.2012 02:25 9,3 C 19,3 C 10,2 C 10,0 C 10,0 C 0,7 C 84 % 87 % 0 % 1011,6 hPa 0,0 l/m 0,0 km/h (0 Bft) O-NO 67 0 min 0,0 UV-I 6,7 C 10,0 C 0,0 km/h (0 Bft)
22.09.2012 02:30 9,2 C 19,3 C 10,3 C 9,8 C 9,8 C 0,6 C 84 % 88 % 0 % 1011,6 hPa 0,0 l/m 0,0 km/h (0 Bft) O-NO 67 0 min 0,0 UV-I 6,6 C 9,8 C 0,0 km/h (0 Bft)
22.09.2012 02:35 9,2 C 19,3 C 10,3 C 9,7 C 9,7 C 0,5 C 84 % 88 % 0 % 1011,6 hPa 0,0 l/m 0,0 km/h (0 Bft) O-NO 67 0 min 0,0 UV-I 6,6 C 9,7 C 0,0 km/h (0 Bft)
22.09.2012 02:40 9,2 C 19,3 C 10,2 C 9,6 C 9,6 C 0,4 C 85 % 88 % 0 % 1012,1 hPa 0,0 l/m 0,0 km/h (0 Bft) O-SO 112 0 min 0,0 UV-I 6,8 C 9,6 C 0,0 km/h (0 Bft)
22.09.2012 02:45 9,2 C 19,3 C 10,2 C 9,6 C 9,6 C 0,4 C 85 % 88 % 0 % 1012,1 hPa 0,0 l/m 0,0 km/h (0 Bft) N-NW 337 0 min 0,0 UV-I 6,8 C 9,6 C 0,0 km/h (0 Bft)
22.09.2012 02:50 9,2 C 19,3 C 10,1 C 9,6 C 9,6 C 0,4 C 85 % 88 % 0 % 1012,1 hPa 0,0 l/m 0,0 km/h (0 Bft) N-NW 337 0 min 0,0 UV-I 6,8 C 9,6 C 0,0 km/h (0 Bft)
22.09.2012 02:55 9,2 C 19,4 C 10,1 C 9,6 C 9,6 C 0,4 C 85 % 88 % 0 % 1012,1 hPa 0,0 l/m 0,0 km/h (0 Bft) N-NO 22 0 min 0,0 UV-I 6,8 C 9,6 C 0,0 km/h (0 Bft)
22.09.2012 03:00 9,2 C 19,4 C 10,1 C 9,6 C 9,6 C 0,4 C 85 % 89 % 0 % 1011,4 hPa 0,0 l/m 0,0 km/h (0 Bft) N-NO 22 0 min 0,0 UV-I 6,8 C 9,6 C 0,0 km/h (0 Bft)
22.09.2012 03:05 9,2 C 19,4 C 10,1 C 9,6 C 9,6 C 0,4 C 85 % 89 % 0 % 1011,4 hPa 0,0 l/m 0,0 km/h (0 Bft) O 90 0 min 0,0 UV-I 6,8 C 9,6 C 0,0 km/h (0 Bft)
22.09.2012 03:10 9,2 C 19,5 C 10,1 C 9,6 C 9,6 C 0,4 C 86 % 89 % 0 % 1011,4 hPa 0,7 l/m 0,0 km/h (0 Bft) O-NO 67 0 min 0,0 UV-I 7,0 C 9,6 C 0,0 km/h (0 Bft)
22.09.2012 03:15 9,2 C 19,5 C 10,0 C 9,6 C 9,6 C 0,4 C 86 % 89 % 0 % 1011,4 hPa 0,0 l/m 0,0 km/h (0 Bft) O-NO 67 0 min 0,0 UV-I 7,0 C 9,6 C 0,0 km/h (0 Bft)
22.09.2012 03:20 9,2 C 19,5 C 10,0 C 9,6 C 9,6 C 0,4 C 86 % 90 % 0 % 1011,6 hPa 0,0 l/m 0,0 km/h (0 Bft) O 90 0 min 0,0 UV-I 7,0 C 9,6 C 0,0 km/h (0 Bft)
22.09.2012 03:25 9,1 C 19,6 C 10,0 C 9,6 C 9,6 C 0,5 C 86 % 90 % 0 % 1011,6 hPa 0,0 l/m 0,0 km/h (0 Bft) O 90 0 min 0,0 UV-I 6,9 C 9,6 C 0,0 km/h (0 Bft)
22.09.2012 03:30 9,1 C 19,5 C 9,9 C 9,6 C 9,6 C 0,5 C 86 % 90 % 0 % 1011,6 hPa 0,0 l/m 0,0 km/h (0 Bft) O 90 0 min 0,0 UV-I 6,9 C 9,6 C 0,0 km/h (0 Bft)
22.09.2012 03:35 9,1 C 19,5 C 10,0 C 9,6 C 9,6 C 0,5 C 87 % 90 % 0 % 1011,6 hPa 0,0 l/m 0,0 km/h (0 Bft) W-SW 247 0 min 0,0 UV-I 7,1 C 9,6 C 0,0 km/h (0 Bft)
22.09.2012 03:40 9,1 C 19,5 C 10,0 C 9,6 C 9,6 C 0,5 C 87 % 91 % 0 % 1011,5 hPa 0,0 l/m 0,0 km/h (0 Bft) O-SO 112 0 min 0,0 UV-I 7,1 C 9,6 C 0,0 km/h (0 Bft)
22.09.2012 03:45 9,1 C 19,5 C 9,9 C 9,6 C 9,6 C 0,5 C 87 % 90 % 0 % 1011,5 hPa 0,0 l/m 0,0 km/h (0 Bft) O-SO 112 0 min 0,0 UV-I 7,1 C 9,6 C 0,0 km/h (0 Bft)
22.09.2012 03:50 9,1 C 19,5 C 9,9 C 9,6 C 9,6 C 0,5 C 87 % 90 % 0 % 1011,5 hPa 0,7 l/m 0,0 km/h (0 Bft) O 90 0 min 0,0 UV-I 7,1 C 9,6 C 0,0 km/h (0 Bft)
22.09.2012 03:55 9,1 C 19,5 C 10,0 C 9,7 C 9,7 C 0,6 C 87 % 91 % 0 % 1011,5 hPa 0,0 l/m 0,0 km/h (0 Bft) O 90 0 min 0,0 UV-I 7,1 C 9,7 C 0,0 km/h (0 Bft)
22.09.2012 04:00 9,1 C 19,5 C 10,0 C 9,8 C 9,8 C 0,7 C 87 % 91 % 0 % 1011,4 hPa 0,0 l/m 0,0 km/h (0 Bft) SW 225 0 min 0,0 UV-I 7,1 C 9,8 C 0,0 km/h (0 Bft)
22.09.2012 04:05 9,2 C 19,5 C 10,0 C 9,8 C 9,8 C 0,6 C 87 % 92 % 0 % 1011,4 hPa 0,0 l/m 0,0 km/h (0 Bft) O-NO 67 0 min 0,0 UV-I 7,2 C 9,8 C 0,0 km/h (0 Bft)
22.09.2012 04:10 9,2 C 19,5 C 10,0 C 9,8 C 9,8 C 0,6 C 87 % 92 % 0 % 1011,4 hPa 0,0 l/m 0,0 km/h (0 Bft) O 90 0 min 0,0 UV-I 7,2 C 9,8 C 0,0 km/h (0 Bft)
22.09.2012 04:15 9,2 C 19,5 C 10,1 C 9,8 C 9,8 C 0,6 C 88 % 93 % 0 % 1011,4 hPa 0,0 l/m 0,0 km/h (0 Bft) O-SO 112 0 min 0,0 UV-I 7,3 C 9,8 C 0,0 km/h (0 Bft)
22.09.2012 04:20 9,2 C 19,5 C 10,1 C 9,8 C 9,8 C 0,6 C 88 % 93 % 0 % 1011,2 hPa 0,0 l/m 0,0 km/h (0 Bft) O-SO 112 0 min 0,0 UV-I 7,3 C 9,8 C 0,0 km/h (0 Bft)
22.09.2012 04:25 9,2 C 19,5 C 10,1 C 9,8 C 9,8 C 0,6 C 88 % 93 % 0 % 1011,2 hPa 0,0 l/m 0,0 km/h (0 Bft) O 90 0 min 0,0 UV-I 7,3 C 9,8 C 0,0 km/h (0 Bft)
22.09.2012 04:30 9,3 C 19,5 C 10,1 C 9,8 C 9,8 C 0,5 C 88 % 93 % 0 % 1011,2 hPa 0,0 l/m 0,0 km/h (0 Bft) O-SO 112 0 min 0,0 UV-I 7,4 C 9,8 C 0,0 km/h (0 Bft)
22.09.2012 04:35 9,2 C 19,5 C 10,2 C 9,9 C 9,9 C 0,7 C 88 % 93 % 0 % 1011,2 hPa 0,7 l/m 0,0 km/h (0 Bft) O-SO 112 0 min 0,0 UV-I 7,3 C 9,9 C 0,0 km/h (0 Bft)
22.09.2012 04:40 9,2 C 19,5 C 10,3 C 10,0 C 10,0 C 0,8 C 89 % 93 % 0 % 1011,0 hPa 0,0 l/m 0,0 km/h (0 Bft) SW 225 0 min 0,0 UV-I 7,5 C 10,0 C 0,0 km/h (0 Bft)
22.09.2012 04:45 9,3 C 19,5 C 10,2 C 10,0 C 10,0 C 0,7 C 89 % 93 % 0 % 1011,0 hPa 0,0 l/m 0,0 km/h (0 Bft) O-SO 112 0 min 0,0 UV-I 7,6 C 10,0 C 0,0 km/h (0 Bft)
22.09.2012 04:50 9,5 C 19,5 C 10,3 C 10,0 C 10,0 C 0,5 C 89 % 94 % 0 % 1011,0 hPa 0,0 l/m 0,0 km/h (0 Bft) SW 225 0 min 0,0 UV-I 7,8 C 10,0 C 0,0 km/h (0 Bft)
22.09.2012 04:55 9,5 C 19,5 C 10,4 C 10,1 C 10,1 C 0,6 C 89 % 94 % 0 % 1011,0 hPa 0,0 l/m 0,0 km/h (0 Bft) S 180 0 min 0,0 UV-I 7,8 C 10,1 C 0,0 km/h (0 Bft)
22.09.2012 05:00 9,4 C 19,5 C 10,4 C 10,2 C 10,2 C 0,8 C 89 % 94 % 0 % 1011,2 hPa 0,0 l/m 0,0 km/h (0 Bft) O-SO 112 0 min 0,0 UV-I 7,7 C 10,2 C 0,0 km/h (0 Bft)
22.09.2012 05:05 9,5 C 19,5 C 10,4 C 10,1 C 10,1 C 0,6 C 89 % 94 % 0 % 1011,2 hPa 0,0 l/m 0,0 km/h (0 Bft) SO 135 0 min 0,0 UV-I 7,8 C 10,1 C 0,0 km/h (0 Bft)
22.09.2012 05:10 9,5 C 19,5 C 10,4 C 10,1 C 10,1 C 0,6 C 89 % 94 % 0 % 1011,2 hPa 0,0 l/m 0,0 km/h (0 Bft) O 90 0 min 0,0 UV-I 7,8 C 10,1 C 0,0 km/h (0 Bft)
22.09.2012 05:15 9,5 C 19,5 C 10,4 C 10,1 C 10,1 C 0,6 C 89 % 94 % 0 % 1011,2 hPa 0,0 l/m 0,0 km/h (0 Bft) O 90 0 min 0,0 UV-I 7,8 C 10,1 C 0,0 km/h (0 Bft)
22.09.2012 05:20 9,5 C 19,5 C 10,4 C 10,1 C 10,1 C 0,6 C 89 % 94 % 0 % 1010,3 hPa 0,0 l/m 0,0 km/h (0 Bft) O-NO 67 0 min 0,0 UV-I 7,8 C 10,1 C 0,0 km/h (0 Bft)
22.09.2012 05:25 9,5 C 19,5 C 10,4 C 10,1 C 10,1 C 0,6 C 89 % 94 % 0 % 1010,3 hPa 0,0 l/m 0,0 km/h (0 Bft) W 270 0 min 0,0 UV-I 7,8 C 10,1 C 0,0 km/h (0 Bft)
22.09.2012 05:30 9,5 C 19,5 C 10,4 C 10,1 C 10,1 C 0,6 C 89 % 94 % 0 % 1010,3 hPa 0,0 l/m 0,0 km/h (0 Bft) N-NO 22 0 min 0,0 UV-I 7,8 C 10,1 C 0,0 km/h (0 Bft)
22.09.2012 05:35 9,5 C 19,4 C 10,4 C 10,0 C 10,0 C 0,5 C 89 % 94 % 0 % 1010,3 hPa 0,0 l/m 0,0 km/h (0 Bft) N-NO 22 0 min 0,0 UV-I 7,8 C 10,0 C 0,0 km/h (0 Bft)
22.09.2012 05:40 9,5 C 19,4 C 10,3 C 9,9 C 9,9 C 0,4 C 89 % 94 % 0 % 1010,3 hPa 0,0 l/m 0,0 km/h (0 Bft) NW 315 0 min 0,0 UV-I 7,8 C 9,9 C 0,0 km/h (0 Bft)
22.09.2012 05:45 9,5 C 19,4 C 10,2 C 9,7 C 9,7 C 0,2 C 89 % 94 % 0 % 1010,3 hPa 0,0 l/m 0,0 km/h (0 Bft) W 270 0 min 0,0 UV-I 7,8 C 9,7 C 0,0 km/h (0 Bft)
22.09.2012 05:50 9,5 C 19,4 C 10,1 C 9,6 C 9,6 C 0,1 C 89 % 94 % 0 % 1010,3 hPa 0,0 l/m 0,0 km/h (0 Bft) S-SW 202 0 min 0,0 UV-I 7,8 C 9,6 C 0,0 km/h (0 Bft)
22.09.2012 05:55 9,4 C 19,4 C 10,1 C 9,5 C 9,5 C 0,1 C 89 % 95 % 0 % 1010,3 hPa 0,0 l/m 0,0 km/h (0 Bft) O-NO 67 0 min 0,0 UV-I 7,7 C 9,5 C 0,0 km/h (0 Bft)
22.09.2012 06:00 9,3 C 19,4 C 10,1 C 9,4 C 9,4 C 0,1 C 89 % 95 % 0 % 1010,3 hPa 0,0 l/m 0,0 km/h (0 Bft) O 90 0 min 0,0 UV-I 7,6 C 9,4 C 0,0 km/h (0 Bft)
22.09.2012 06:05 9,3 C 19,4 C 10,0 C 9,3 C 9,3 C 0,0 C 89 % 95 % 0 % 1010,3 hPa 0,0 l/m 0,0 km/h (0 Bft) O 90 0 min 0,0 UV-I 7,6 C 9,3 C 0,0 km/h (0 Bft)
22.09.2012 06:10 9,2 C 19,4 C 10,1 C 9,3 C 9,3 C 0,1 C 89 % 95 % 0 % 1010,3 hPa 0,0 l/m 0,0 km/h (0 Bft) O-NO 67 0 min 0,0 UV-I 7,5 C 9,3 C 0,0 km/h (0 Bft)
22.09.2012 06:15 9,2 C 19,4 C 10,1 C 9,5 C 9,5 C 0,3 C 89 % 95 % 0 % 1010,3 hPa 0,0 l/m 0,0 km/h (0 Bft) O-NO 67 0 min 0,0 UV-I 7,5 C 9,5 C 0,0 km/h (0 Bft)
22.09.2012 06:20 9,3 C 19,4 C 10,0 C 9,6 C 9,6 C 0,3 C 89 % 95 % 0 % 1010,2 hPa 0,0 l/m 0,0 km/h (0 Bft) O-NO 67 0 min 0,0 UV-I 7,6 C 9,6 C 0,0 km/h (0 Bft)
22.09.2012 06:25 9,3 C 19,4 C 10,1 C 9,7 C 9,7 C 0,4 C 90 % 95 % 0 % 1010,2 hPa 0,0 l/m 0,0 km/h (0 Bft) O-NO 67 0 min 0,0 UV-I 7,7 C 9,7 C 0,0 km/h (0 Bft)
22.09.2012 06:30 9,3 C 19,4 C 10,1 C 9,7 C 9,7 C 0,4 C 90 % 95 % 0 % 1010,2 hPa 0,0 l/m 0,0 km/h (0 Bft) S 180 0 min 0,0 UV-I 7,7 C 9,7 C 0,0 km/h (0 Bft)
22.09.2012 06:35 9,2 C 19,4 C 10,1 C 9,7 C 9,7 C 0,5 C 90 % 95 % 0 % 1010,2 hPa 0,0 l/m 0,0 km/h (0 Bft) SO 135 0 min 0,0 UV-I 7,6 C 9,7 C 0,0 km/h (0 Bft)
22.09.2012 06:42 9,2 C 19,4 C 10,0 C 9,7 C 9,7 C 0,5 C 90 % 95 % 0 % 1010,6 hPa 0,0 l/m 0,0 km/h (0 Bft) N 0 0 min 0,0 UV-I 7,6 C 9,7 C 0,0 km/h (0 Bft)
22.09.2012 06:55 9,2 C 19,4 C 10,1 C 9,6 C 9,6 C 0,4 C 90 % 95 % 0 % 1010,6 hPa 0,0 l/m 0,0 km/h (0 Bft) O-NO 67 0 min 0,0 UV-I 7,6 C 9,6 C 0,0 km/h (0 Bft)
22.09.2012 07:00 9,2 C 19,4 C 10,1 C 9,6 C 9,6 C 0,4 C 90 % 95 % 0 % 1010,5 hPa 0,0 l/m 0,0 km/h (0 Bft) O-SO 112 0 min 0,0 UV-I 7,6 C 9,6 C 0,0 km/h (0 Bft)
22.09.2012 07:05 9,1 C 19,4 C 10,0 C 9,6 C 9,6 C 0,5 C 90 % 95 % 0 % 1010,5 hPa 0,0 l/m 0,0 km/h (0 Bft) O-SO 112 0 min 0,0 UV-I 7,5 C 9,6 C 0,0 km/h (0 Bft)
22.09.2012 07:10 9,1 C 19,4 C 10,0 C 9,6 C 9,6 C 0,5 C 90 % 95 % 13 % 1010,5 hPa 0,0 l/m 0,0 km/h (0 Bft) O-SO 112 5 min 0,0 UV-I 7,5 C 9,6 C 0,0 km/h (0 Bft)
22.09.2012 07:15 9,1 C 19,4 C 10,1 C 9,5 C 9,5 C 0,4 C 90 % 95 % 11 % 1010,5 hPa 0,0 l/m 0,0 km/h (0 Bft) W-SW 247 5 min 0,0 UV-I 7,5 C 9,5 C 0,0 km/h (0 Bft)
22.09.2012 07:20 9,0 C 19,4 C 10,1 C 9,5 C 9,5 C 0,5 C 90 % 95 % 13 % 1010,4 hPa 0,0 l/m 0,0 km/h (0 Bft) SW 225 0 min 0,0 UV-I 7,4 C 9,5 C 0,0 km/h (0 Bft)
22.09.2012 07:25 9,1 C 19,4 C 10,1 C 9,6 C 9,6 C 0,5 C 90 % 95 % 13 % 1010,4 hPa 0,0 l/m 0,0 km/h (0 Bft) SW 225 0 min 0,0 UV-I 7,5 C 9,6 C 0,0 km/h (0 Bft)
22.09.2012 07:30 9,0 C 19,4 C 10,0 C 9,7 C 9,7 C 0,7 C 90 % 95 % 18 % 1010,4 hPa 0,0 l/m 0,0 km/h (0 Bft) W-NW 292 0 min 0,0 UV-I 7,4 C 9,7 C 0,0 km/h (0 Bft)
22.09.2012 07:35 9,1 C 19,4 C 10,1 C 9,9 C 9,9 C 0,8 C 90 % 95 % 21 % 1010,4 hPa 0,0 l/m 0,0 km/h (0 Bft) SW 225 0 min 0,0 UV-I 7,5 C 9,9 C 1,9 km/h (1 Bft)
22.09.2012 07:40 9,2 C 19,4 C 10,2 C 10,0 C 10,0 C 0,8 C 90 % 95 % 21 % 1010,6 hPa 0,0 l/m 0,2 km/h (0 Bft) S-SO 157 0 min 0,0 UV-I 7,6 C 10,0 C 0,0 km/h (0 Bft)
22.09.2012 07:45 9,3 C 19,4 C 10,4 C 10,2 C 10,2 C 0,9 C 90 % 95 % 24 % 1010,6 hPa 0,0 l/m 0,0 km/h (0 Bft) W 270 0 min 0,0 UV-I 7,7 C 10,2 C 0,0 km/h (0 Bft)
22.09.2012 07:50 9,5 C 19,4 C 10,4 C 10,3 C 10,3 C 0,8 C 90 % 95 % 21 % 1010,6 hPa 0,0 l/m 0,0 km/h (0 Bft) NW 315 0 min 0,0 UV-I 7,9 C 10,3 C 0,0 km/h (0 Bft)
22.09.2012 07:55 9,5 C 19,4 C 10,5 C 10,3 C 10,3 C 0,8 C 90 % 95 % 21 % 1010,6 hPa 0,0 l/m 0,0 km/h (0 Bft) SO 135 0 min 0,0 UV-I 7,9 C 10,3 C 0,0 km/h (0 Bft)
22.09.2012 08:00 9,5 C 19,4 C 10,5 C 10,4 C 10,4 C 0,9 C 91 % 95 % 24 % 1010,4 hPa 0,0 l/m 0,2 km/h (0 Bft) S-SW 202 0 min 0,0 UV-I 8,1 C 10,4 C 0,0 km/h (0 Bft)
22.09.2012 08:05 9,6 C 19,4 C 10,7 C 10,5 C 10,5 C 0,9 C 91 % 95 % 24 % 1010,4 hPa 0,0 l/m 0,3 km/h (0 Bft) N-NO 22 0 min 0,0 UV-I 8,2 C 10,5 C 3,2 km/h (1 Bft)
22.09.2012 08:10 9,7 C 19,4 C 10,7 C 10,6 C 10,6 C 0,9 C 91 % 95 % 24 % 1010,4 hPa 0,0 l/m 0,3 km/h (0 Bft) SO 135 0 min 0,0 UV-I 8,3 C 10,6 C 0,0 km/h (0 Bft)
22.09.2012 08:15 9,9 C 19,4 C 10,7 C 10,7 C 10,7 C 0,8 C 91 % 95 % 21 % 1010,4 hPa 0,0 l/m 0,6 km/h (0 Bft) O-NO 67 0 min 0,0 UV-I 8,5 C 10,7 C 3,7 km/h (1 Bft)
22.09.2012 08:20 9,9 C 19,4 C 10,7 C 10,8 C 10,8 C 0,9 C 91 % 95 % 24 % 1010,7 hPa 0,0 l/m 0,5 km/h (0 Bft) W-SW 247 0 min 0,0 UV-I 8,5 C 10,8 C 0,0 km/h (0 Bft)
22.09.2012 08:25 10,0 C 19,4 C 10,8 C 10,9 C 10,9 C 0,9 C 91 % 96 % 24 % 1010,7 hPa 0,0 l/m 0,2 km/h (0 Bft) NW 315 0 min 0,0 UV-I 8,6 C 10,9 C 0,0 km/h (0 Bft)
22.09.2012 08:30 10,0 C 19,4 C 10,9 C 11,1 C 11,1 C 1,1 C 91 % 96 % 29 % 1010,7 hPa 0,0 l/m 0,2 km/h (0 Bft) SO 135 0 min 0,0 UV-I 8,6 C 11,1 C 0,0 km/h (0 Bft)
22.09.2012 08:35 10,1 C 19,4 C 11,1 C 11,2 C 11,2 C 1,1 C 91 % 96 % 29 % 1010,7 hPa 0,0 l/m 0,2 km/h (0 Bft) S-SW 202 0 min 0,0 UV-I 8,7 C 11,2 C 2,1 km/h (1 Bft)
22.09.2012 08:40 10,3 C 19,4 C 11,1 C 11,3 C 11,3 C 1,0 C 91 % 96 % 26 % 1010,7 hPa 0,0 l/m 0,2 km/h (0 Bft) W 270 0 min 0,0 UV-I 8,9 C 11,3 C 0,0 km/h (0 Bft)
22.09.2012 08:45 10,3 C 19,4 C 11,2 C 11,5 C 11,5 C 1,2 C 91 % 95 % 32 % 1010,7 hPa 0,0 l/m 0,5 km/h (0 Bft) S 180 0 min 0,0 UV-I 8,9 C 11,5 C 3,2 km/h (1 Bft)
22.09.2012 08:50 10,5 C 19,4 C 11,2 C 11,5 C 11,5 C 1,0 C 91 % 96 % 26 % 1010,7 hPa 0,0 l/m 0,5 km/h (0 Bft) S-SO 157 0 min 0,0 UV-I 9,1 C 11,5 C 0,0 km/h (0 Bft)
22.09.2012 08:55 10,5 C 19,4 C 11,3 C 11,7 C 11,7 C 1,2 C 91 % 95 % 32 % 1010,7 hPa 0,0 l/m 0,6 km/h (0 Bft) W 270 0 min 0,0 UV-I 9,1 C 11,7 C 0,0 km/h (0 Bft)
22.09.2012 09:00 10,7 C 19,4 C 11,4 C 11,7 C 11,7 C 1,0 C 91 % 95 % 26 % 1010,9 hPa 0,0 l/m 0,6 km/h (0 Bft) W-SW 247 0 min 0,0 UV-I 9,3 C 11,7 C 2,9 km/h (1 Bft)
22.09.2012 09:05 10,7 C 19,3 C 11,4 C 11,9 C 11,9 C 1,2 C 91 % 95 % 32 % 1010,9 hPa 0,0 l/m 1,0 km/h (0 Bft) NW 315 0 min 0,0 UV-I 9,3 C 11,9 C 4,5 km/h (1 Bft)
22.09.2012 09:10 10,8 C 19,3 C 11,5 C 12,1 C 12,1 C 1,3 C 91 % 95 % 34 % 1010,9 hPa 0,0 l/m 1,1 km/h (1 Bft) O-SO 112 0 min 0,0 UV-I 9,4 C 12,1 C 0,0 km/h (0 Bft)
22.09.2012 09:15 11,0 C 19,3 C 11,6 C 12,3 C 12,3 C 1,3 C 91 % 95 % 34 % 1010,9 hPa 0,0 l/m 0,6 km/h (0 Bft) W 270 0 min 0,0 UV-I 9,6 C 12,3 C 2,1 km/h (1 Bft)
22.09.2012 09:20 11,1 C 19,3 C 11,7 C 12,5 C 12,5 C 1,4 C 92 % 95 % 37 % 1010,8 hPa 0,0 l/m 1,3 km/h (1 Bft) S 180 0 min 0,2 UV-I 9,8 C 12,5 C 3,1 km/h (1 Bft)
22.09.2012 09:25 11,2 C 19,3 C 11,8 C 12,8 C 12,8 C 1,6 C 92 % 95 % 42 % 1010,8 hPa 0,0 l/m 2,1 km/h (1 Bft) W 270 0 min 0,2 UV-I 9,9 C 12,8 C 6,8 km/h (2 Bft)
22.09.2012 09:30 11,2 C 19,3 C 11,9 C 13,0 C 13,0 C 1,8 C 92 % 95 % 47 % 1010,8 hPa 0,0 l/m 2,1 km/h (1 Bft) S 180 0 min 0,2 UV-I 9,9 C 13,0 C 2,6 km/h (1 Bft)
22.09.2012 09:35 11,5 C 19,3 C 12,0 C 13,2 C 13,2 C 1,7 C 92 % 95 % 45 % 1010,8 hPa 0,0 l/m 2,6 km/h (1 Bft) W 270 0 min 0,3 UV-I 10,2 C 13,2 C 4,5 km/h (1 Bft)
22.09.2012 09:40 11,5 C 19,3 C 12,0 C 13,4 C 13,4 C 1,9 C 92 % 95 % 50 % 1010,5 hPa 0,0 l/m 2,9 km/h (1 Bft) W-SW 247 0 min 0,3 UV-I 10,2 C 13,4 C 5,1 km/h (1 Bft)
22.09.2012 09:45 11,6 C 19,3 C 12,2 C 13,6 C 13,6 C 2,0 C 91 % 95 % 53 % 1010,5 hPa 0,0 l/m 3,9 km/h (1 Bft) S 180 0 min 0,4 UV-I 10,2 C 13,6 C 10,3 km/h (2 Bft)
22.09.2012 09:50 11,7 C 19,2 C 12,3 C 13,7 C 13,7 C 2,0 C 91 % 95 % 53 % 1010,5 hPa 0,0 l/m 3,7 km/h (1 Bft) W-SW 247 0 min 0,4 UV-I 10,3 C 13,7 C 10,0 km/h (2 Bft)
22.09.2012 09:55 11,9 C 19,2 C 12,4 C 14,0 C 14,0 C 2,1 C 90 % 95 % 55 % 1010,5 hPa 0,0 l/m 6,0 km/h (2 Bft) NW 315 0 min 0,4 UV-I 10,3 C 14,0 C 27,4 km/h (4 Bft)
22.09.2012 10:00 12,0 C 19,2 C 12,4 C 13,8 C 13,8 C 1,8 C 89 % 95 % 47 % 1010,9 hPa 0,0 l/m 7,6 km/h (2 Bft) W-NW 292 0 min 0,4 UV-I 10,2 C 13,8 C 15,3 km/h (3 Bft)
22.09.2012 10:05 12,1 C 19,2 C 12,4 C 13,8 C 13,5 C 1,7 C 87 % 95 % 45 % 1010,9 hPa 0,0 l/m 9,3 km/h (2 Bft) W-SW 247 0 min 0,5 UV-I 10,0 C 13,5 C 10,9 km/h (2 Bft)
22.09.2012 10:10 12,2 C 19,1 C 12,5 C 13,6 C 13,3 C 1,4 C 86 % 95 % 37 % 1010,9 hPa 0,0 l/m 10,6 km/h (2 Bft) W-SW 247 0 min 0,6 UV-I 9,9 C 13,3 C 12,1 km/h (2 Bft)
22.09.2012 10:15 12,3 C 19,1 C 12,5 C 13,3 C 13,3 C 1,0 C 85 % 95 % 26 % 1010,9 hPa 0,0 l/m 10,3 km/h (2 Bft) W-SW 247 0 min 0,6 UV-I 9,9 C 13,3 C 11,1 km/h (2 Bft)
22.09.2012 10:20 12,3 C 19,1 C 12,5 C 13,7 C 13,7 C 1,4 C 85 % 95 % 37 % 1011,0 hPa 0,0 l/m 9,8 km/h (2 Bft) S 180 0 min 0,5 UV-I 9,9 C 13,7 C 7,9 km/h (2 Bft)
22.09.2012 10:25 12,4 C 19,1 C 12,6 C 13,7 C 13,7 C 1,3 C 84 % 95 % 34 % 1011,0 hPa 0,0 l/m 9,8 km/h (2 Bft) W-SW 247 0 min 0,6 UV-I 9,8 C 13,7 C 10,1 km/h (2 Bft)
22.09.2012 10:30 12,4 C 19,1 C 12,6 C 13,8 C 13,6 C 1,4 C 84 % 95 % 37 % 1011,0 hPa 0,0 l/m 9,3 km/h (2 Bft) SW 225 0 min 0,7 UV-I 9,8 C 13,6 C 6,8 km/h (2 Bft)
22.09.2012 10:35 12,5 C 19,1 C 12,7 C 14,0 C 14,0 C 1,5 C 83 % 95 % 39 % 1011,0 hPa 0,0 l/m 8,0 km/h (2 Bft) W 270 0 min 0,8 UV-I 9,7 C 14,0 C 8,5 km/h (2 Bft)
22.09.2012 10:40 12,7 C 19,0 C 12,8 C 14,1 C 14,1 C 1,4 C 83 % 95 % 37 % 1011,1 hPa 0,0 l/m 7,7 km/h (2 Bft) W-SW 247 0 min 0,8 UV-I 9,9 C 14,1 C 8,4 km/h (2 Bft)
22.09.2012 10:45 12,7 C 19,0 C 12,8 C 14,3 C 14,2 C 1,6 C 82 % 95 % 42 % 1011,1 hPa 0,0 l/m 8,4 km/h (2 Bft) W-SW 247 0 min 0,8 UV-I 9,7 C 14,2 C 13,0 km/h (3 Bft)
22.09.2012 10:50 12,7 C 19,0 C 12,8 C 14,2 C 14,0 C 1,5 C 82 % 95 % 39 % 1011,1 hPa 0,0 l/m 9,2 km/h (2 Bft) SW 225 0 min 0,8 UV-I 9,7 C 14,0 C 10,8 km/h (2 Bft)
22.09.2012 10:55 12,7 C 19,0 C 12,8 C 14,2 C 14,1 C 1,5 C 82 % 95 % 39 % 1011,1 hPa 0,0 l/m 8,7 km/h (2 Bft) SW 225 0 min 1,0 UV-I 9,7 C 14,1 C 12,7 km/h (3 Bft)
22.09.2012 11:00 12,9 C 19,0 C 12,8 C 14,4 C 14,4 C 1,5 C 80 % 95 % 39 % 1011,2 hPa 0,0 l/m 8,0 km/h (2 Bft) W-SW 247 0 min 1,1 UV-I 9,5 C 14,4 C 12,2 km/h (2 Bft)
22.09.2012 11:05 13,2 C 19,0 C 12,9 C 14,4 C 14,2 C 1,2 C 78 % 95 % 32 % 1011,2 hPa 0,0 l/m 10,1 km/h (2 Bft) W-SW 247 0 min 1,1 UV-I 9,4 C 14,2 C 18,5 km/h (3 Bft)
22.09.2012 11:10 13,3 C 19,0 C 12,9 C 14,2 C 13,9 C 0,9 C 78 % 94 % 24 % 1011,2 hPa 0,0 l/m 10,5 km/h (2 Bft) W-SW 247 0 min 1,1 UV-I 9,5 C 13,9 C 6,8 km/h (2 Bft)
22.09.2012 11:15 13,2 C 19,0 C 12,9 C 14,1 C 14,0 C 0,9 C 78 % 94 % 24 % 1011,2 hPa 0,0 l/m 9,8 km/h (2 Bft) S 180 0 min 1,2 UV-I 9,4 C 14,0 C 11,1 km/h (2 Bft)
22.09.2012 11:20 13,3 C 19,0 C 13,0 C 14,4 C 14,5 C 1,1 C 78 % 94 % 29 % 1011,1 hPa 0,0 l/m 8,4 km/h (2 Bft) S-SW 202 0 min 1,3 UV-I 9,5 C 14,5 C 10,9 km/h (2 Bft)
22.09.2012 11:25 13,7 C 19,0 C 13,2 C 14,9 C 15,1 C 1,2 C 76 % 94 % 32 % 1011,1 hPa 0,0 l/m 7,9 km/h (2 Bft) SW 225 0 min 1,3 UV-I 9,5 C 15,1 C 14,0 km/h (3 Bft)
22.09.2012 11:30 13,9 C 19,0 C 13,2 C 15,3 C 15,3 C 1,4 C 75 % 94 % 37 % 1011,1 hPa 0,0 l/m 8,5 km/h (2 Bft) W 270 0 min 1,2 UV-I 9,5 C 15,3 C 10,3 km/h (2 Bft)
22.09.2012 11:35 13,9 C 19,0 C 13,5 C 15,6 C 15,6 C 1,7 C 76 % 94 % 45 % 1011,1 hPa 0,0 l/m 7,7 km/h (2 Bft) W 270 0 min 0,8 UV-I 9,7 C 15,6 C 9,8 km/h (2 Bft)
22.09.2012 11:40 13,9 C 19,0 C 13,5 C 15,6 C 15,6 C 1,7 C 76 % 94 % 45 % 1012,2 hPa 0,0 l/m 6,9 km/h (2 Bft) SO 135 0 min 1,0 UV-I 9,7 C 15,6 C 4,5 km/h (1 Bft)
22.09.2012 11:45 14,0 C 19,0 C 13,4 C 15,9 C 15,9 C 1,9 C 74 % 94 % 50 % 1012,2 hPa 0,0 l/m 7,7 km/h (2 Bft) W 270 0 min 1,1 UV-I 9,4 C 15,9 C 6,1 km/h (2 Bft)
22.09.2012 11:50 14,1 C 19,0 C 13,5 C 15,8 C 15,8 C 1,7 C 74 % 94 % 45 % 1012,2 hPa 0,0 l/m 7,6 km/h (2 Bft) SW 225 0 min 0,7 UV-I 9,5 C 15,8 C 4,7 km/h (1 Bft)
22.09.2012 11:55 14,0 C 19,0 C 13,4 C 15,7 C 15,6 C 1,7 C 71 % 93 % 45 % 1012,2 hPa 0,0 l/m 8,0 km/h (2 Bft) W-SW 247 0 min 0,9 UV-I 8,8 C 15,6 C 8,2 km/h (2 Bft)
22.09.2012 12:00 14,0 C 18,9 C 13,3 C 15,3 C 15,1 C 1,3 C 71 % 93 % 34 % 1011,8 hPa 0,0 l/m 8,4 km/h (2 Bft) SW 225 0 min 1,3 UV-I 8,8 C 15,1 C 6,3 km/h (2 Bft)
22.09.2012 12:05 14,1 C 18,9 C 13,9 C 15,0 C 14,8 C 0,9 C 69 % 92 % 24 % 1011,8 hPa 0,0 l/m 8,7 km/h (2 Bft) W-SW 247 0 min 1,4 UV-I 8,5 C 14,8 C 17,7 km/h (3 Bft)
22.09.2012 12:10 14,3 C 18,9 C 13,9 C 15,0 C 15,0 C 0,7 C 68 % 92 % 18 % 1011,8 hPa 0,0 l/m 9,0 km/h (2 Bft) W-SW 247 0 min 1,4 UV-I 8,5 C 15,0 C 12,2 km/h (2 Bft)
22.09.2012 12:15 14,5 C 18,9 C 14,0 C 15,2 C 15,2 C 0,7 C 67 % 92 % 18 % 1011,8 hPa 0,0 l/m 10,0 km/h (2 Bft) SO 135 0 min 1,5 UV-I 8,4 C 15,2 C 14,0 km/h (3 Bft)
22.09.2012 12:20 14,6 C 18,9 C 14,3 C 15,2 C 15,2 C 0,6 C 64 % 91 % 16 % 1011,8 hPa 0,0 l/m 10,8 km/h (2 Bft) SW 225 0 min 1,5 UV-I 7,9 C 15,2 C 10,3 km/h (2 Bft)
22.09.2012 12:25 14,8 C 18,9 C 15,0 C 15,8 C 15,9 C 1,0 C 64 % 90 % 26 % 1011,8 hPa 0,0 l/m 11,4 km/h (2 Bft) SW 225 0 min 1,6 UV-I 8,1 C 15,9 C 29,1 km/h (5 Bft)
22.09.2012 12:30 14,9 C 19,0 C 14,8 C 16,4 C 16,5 C 1,5 C 63 % 86 % 39 % 1011,8 hPa 0,0 l/m 11,9 km/h (2 Bft) W-SW 247 0 min 1,6 UV-I 7,9 C 16,5 C 17,7 km/h (3 Bft)
22.09.2012 12:35 14,6 C 19,0 C 14,5 C 16,5 C 16,3 C 1,9 C 64 % 85 % 50 % 1011,8 hPa 0,0 l/m 12,4 km/h (3 Bft) S 180 0 min 1,5 UV-I 7,9 C 16,3 C 13,8 km/h (3 Bft)
22.09.2012 12:42 14,7 C 19,0 C 14,6 C 16,5 C 16,4 C 1,8 C 63 % 84 % 47 % 1012,1 hPa 0,0 l/m 12,6 km/h (3 Bft) N 0 0 min 2,0 UV-I 7,7 C 16,4 C 15,9 km/h (3 Bft)
22.09.2012 12:55 15,1 C 19,0 C 14,7 C 18,2 C 18,2 C 3,1 C 65 % 85 % 82 % 1012,1 hPa 0,0 l/m 10,5 km/h (2 Bft) W-SW 247 0 min 2,8 UV-I 8,6 C 18,2 C 6,8 km/h (2 Bft)
22.09.2012 13:00 15,2 C 19,0 C 14,7 C 18,5 C 18,5 C 3,3 C 64 % 84 % 87 % 1012,0 hPa 0,0 l/m 9,5 km/h (2 Bft) W 270 5 min 2,8 UV-I 8,4 C 18,5 C 12,1 km/h (2 Bft)
22.09.2012 13:05 15,2 C 19,0 C 14,8 C 19,0 C 19,0 C 3,8 C 65 % 84 % 100 % 1012,0 hPa 0,0 l/m 9,7 km/h (2 Bft) SW 225 5 min 2,2 UV-I 8,7 C 19,0 C 16,3 km/h (3 Bft)
22.09.2012 13:10 15,2 C 19,0 C 14,7 C 18,1 C 18,1 C 2,9 C 64 % 84 % 76 % 1012,0 hPa 0,0 l/m 9,3 km/h (2 Bft) S-SO 157 0 min 1,5 UV-I 8,4 C 18,1 C 9,5 km/h (2 Bft)
22.09.2012 13:15 14,8 C 19,0 C 14,2 C 16,5 C 16,5 C 1,7 C 65 % 84 % 45 % 1012,0 hPa 0,0 l/m 9,0 km/h (2 Bft) SW 225 0 min 0,6 UV-I 8,3 C 16,5 C 5,6 km/h (1 Bft)
22.09.2012 13:20 14,7 C 19,0 C 14,1 C 15,9 C 15,4 C 1,2 C 65 % 81 % 32 % 1012,5 hPa 0,0 l/m 10,3 km/h (2 Bft) S-SW 202 0 min 0,2 UV-I 8,2 C 15,4 C 15,4 km/h (3 Bft)
22.09.2012 13:25 14,3 C 19,0 C 13,9 C 14,9 C 14,3 C 0,6 C 67 % 83 % 16 % 1012,5 hPa 0,0 l/m 11,1 km/h (2 Bft) S-SO 157 0 min 0,3 UV-I 8,3 C 14,3 C 33,3 km/h (5 Bft)
22.09.2012 13:30 14,1 C 19,0 C 13,7 C 14,3 C 14,0 C 0,2 C 67 % 82 % 5 % 1012,5 hPa 0,0 l/m 12,2 km/h (2 Bft) W-SW 247 0 min 0,4 UV-I 8,1 C 14,0 C 16,6 km/h (3 Bft)
22.09.2012 13:35 13,9 C 19,0 C 13,6 C 13,9 C 13,4 C 0,0 C 68 % 82 % 0 % 1012,5 hPa 0,0 l/m 13,7 km/h (3 Bft) W 270 0 min 0,3 UV-I 8,1 C 13,4 C 10,8 km/h (2 Bft)
22.09.2012 13:40 13,9 C 19,0 C 13,6 C 13,9 C 13,6 C 0,0 C 68 % 83 % 0 % 1012,9 hPa 0,0 l/m 12,6 km/h (3 Bft) W 270 0 min 0,5 UV-I 8,1 C 13,6 C 19,6 km/h (3 Bft)
22.09.2012 13:45 13,7 C 19,0 C 13,5 C 14,0 C 13,8 C 0,3 C 69 % 83 % 8 % 1012,9 hPa 0,0 l/m 11,4 km/h (2 Bft) S 180 0 min 0,7 UV-I 8,1 C 13,8 C 17,5 km/h (3 Bft)
22.09.2012 13:50 13,7 C 19,0 C 13,6 C 13,8 C 13,8 C 0,1 C 68 % 82 % 3 % 1012,9 hPa 0,0 l/m 11,4 km/h (2 Bft) SW 225 0 min 0,6 UV-I 7,9 C 13,8 C 10,0 km/h (2 Bft)
22.09.2012 13:55 13,7 C 19,0 C 13,5 C 14,3 C 14,3 C 0,6 C 69 % 83 % 16 % 1012,9 hPa 0,0 l/m 10,0 km/h (2 Bft) W 270 0 min 1,1 UV-I 8,1 C 14,3 C 14,6 km/h (3 Bft)
22.09.2012 14:00 13,7 C 19,0 C 13,5 C 14,6 C 14,6 C 0,9 C 69 % 83 % 24 % 1013,1 hPa 0,0 l/m 9,5 km/h (2 Bft) W 270 0 min 1,3 UV-I 8,1 C 14,6 C 11,4 km/h (2 Bft)
22.09.2012 14:05 13,6 C 19,0 C 13,7 C 14,7 C 14,5 C 1,1 C 67 % 81 % 29 % 1013,1 hPa 0,0 l/m 9,8 km/h (2 Bft) W 270 0 min 1,4 UV-I 7,6 C 14,5 C 10,1 km/h (2 Bft)
22.09.2012 14:10 13,6 C 19,0 C 13,6 C 15,1 C 15,2 C 1,5 C 66 % 80 % 39 % 1013,1 hPa 0,0 l/m 10,8 km/h (2 Bft) SW 225 0 min 1,6 UV-I 7,4 C 15,2 C 6,6 km/h (2 Bft)
22.09.2012 14:15 13,7 C 19,0 C 13,6 C 15,4 C 15,3 C 1,7 C 67 % 81 % 45 % 1013,1 hPa 0,0 l/m 10,5 km/h (2 Bft) S 180 0 min 1,5 UV-I 7,7 C 15,3 C 9,3 km/h (2 Bft)
22.09.2012 14:20 13,7 C 19,0 C 13,9 C 15,6 C 15,6 C 1,9 C 67 % 81 % 50 % 1013,0 hPa 0,0 l/m 9,3 km/h (2 Bft) NW 315 0 min 1,5 UV-I 7,7 C 15,6 C 12,2 km/h (2 Bft)
22.09.2012 14:25 14,1 C 19,0 C 14,4 C 17,7 C 17,7 C 3,6 C 67 % 81 % 95 % 1013,0 hPa 0,0 l/m 9,8 km/h (2 Bft) SW 225 5 min 1,7 UV-I 8,1 C 17,7 C 11,6 km/h (2 Bft)
22.09.2012 14:30 14,4 C 19,0 C 14,7 C 18,3 C 18,3 C 3,9 C 66 % 79 % 100 % 1013,0 hPa 0,0 l/m 10,0 km/h (2 Bft) N-NW 337 5 min 1,7 UV-I 8,1 C 18,3 C 9,0 km/h (2 Bft)
22.09.2012 14:35 14,3 C 19,0 C 14,6 C 17,9 C 17,9 C 3,6 C 66 % 80 % 95 % 1013,0 hPa 0,0 l/m 10,1 km/h (2 Bft) W 270 5 min 1,4 UV-I 8,0 C 17,9 C 10,0 km/h (2 Bft)
22.09.2012 14:40 14,3 C 19,0 C 14,5 C 17,1 C 17,1 C 2,8 C 66 % 80 % 74 % 1013,1 hPa 0,0 l/m 9,2 km/h (2 Bft) SW 225 0 min 1,3 UV-I 8,0 C 17,1 C 15,3 km/h (3 Bft)
22.09.2012 14:45 14,1 C 19,0 C 14,1 C 16,5 C 16,2 C 2,4 C 64 % 78 % 63 % 1013,1 hPa 0,0 l/m 9,5 km/h (2 Bft) W-SW 247 0 min 1,2 UV-I 7,4 C 16,2 C 7,2 km/h (2 Bft)
22.09.2012 14:50 13,9 C 19,0 C 14,0 C 15,7 C 15,4 C 1,8 C 64 % 77 % 47 % 1013,1 hPa 0,0 l/m 8,7 km/h (2 Bft) W-SW 247 0 min 0,6 UV-I 7,2 C 15,4 C 9,3 km/h (2 Bft)
22.09.2012 14:55 13,9 C 19,0 C 13,9 C 15,2 C 15,0 C 1,3 C 65 % 78 % 34 % 1013,1 hPa 0,0 l/m 8,0 km/h (2 Bft) SW 225 0 min 0,6 UV-I 7,4 C 15,0 C 10,9 km/h (2 Bft)
22.09.2012 15:00 13,8 C 19,0 C 13,9 C 15,2 C 15,1 C 1,4 C 63 % 76 % 37 % 1013,9 hPa 0,0 l/m 9,5 km/h (2 Bft) W 270 0 min 1,2 UV-I 6,9 C 15,1 C 20,0 km/h (4 Bft)
22.09.2012 15:05 13,9 C 19,0 C 13,9 C 15,0 C 14,7 C 1,1 C 63 % 76 % 29 % 1013,9 hPa 0,0 l/m 11,1 km/h (2 Bft) S-SW 202 0 min 0,9 UV-I 7,0 C 14,7 C 12,1 km/h (2 Bft)
22.09.2012 15:10 13,7 C 19,0 C 13,8 C 14,7 C 14,4 C 1,0 C 63 % 77 % 26 % 1013,9 hPa 0,0 l/m 11,1 km/h (2 Bft) W-SW 247 0 min 0,7 UV-I 6,8 C 14,4 C 15,1 km/h (3 Bft)
22.09.2012 15:15 13,9 C 19,0 C 14,0 C 15,1 C 15,3 C 1,2 C 63 % 77 % 32 % 1013,9 hPa 0,0 l/m 10,5 km/h (2 Bft) SW 225 0 min 1,0 UV-I 7,0 C 15,3 C 20,9 km/h (4 Bft)
22.09.2012 15:20 14,3 C 19,0 C 14,3 C 16,1 C 16,4 C 1,8 C 64 % 77 % 47 % 1013,9 hPa 0,0 l/m 10,0 km/h (2 Bft) S 180 0 min 1,2 UV-I 7,6 C 16,4 C 12,6 km/h (3 Bft)
22.09.2012 15:25 14,3 C 19,0 C 14,1 C 16,4 C 16,4 C 2,1 C 62 % 75 % 55 % 1013,9 hPa 0,0 l/m 10,9 km/h (2 Bft) W 270 0 min 1,0 UV-I 7,1 C 16,4 C 19,3 km/h (3 Bft)
22.09.2012 15:30 14,1 C 19,0 C 14,0 C 16,1 C 15,8 C 2,0 C 63 % 75 % 53 % 1013,9 hPa 0,0 l/m 10,8 km/h (2 Bft) W 270 0 min 0,9 UV-I 7,2 C 15,8 C 9,3 km/h (2 Bft)
22.09.2012 15:35 14,1 C 19,0 C 14,1 C 16,1 C 16,1 C 2,0 C 63 % 75 % 53 % 1013,9 hPa 0,0 l/m 10,1 km/h (2 Bft) W-SW 247 0 min 1,0 UV-I 7,2 C 16,1 C 9,5 km/h (2 Bft)
22.09.2012 15:40 14,0 C 19,0 C 14,0 C 15,7 C 15,3 C 1,7 C 63 % 75 % 45 % 1014,5 hPa 0,0 l/m 10,3 km/h (2 Bft) S-SW 202 0 min 0,8 UV-I 7,1 C 15,3 C 13,8 km/h (3 Bft)
22.09.2012 15:45 13,8 C 19,0 C 13,8 C 15,1 C 14,9 C 1,3 C 63 % 76 % 34 % 1014,5 hPa 0,0 l/m 10,0 km/h (2 Bft) S-SW 202 0 min 0,8 UV-I 6,9 C 14,9 C 10,9 km/h (2 Bft)
22.09.2012 15:50 13,9 C 19,0 C 13,6 C 14,8 C 14,6 C 0,9 C 64 % 77 % 24 % 1014,5 hPa 0,0 l/m 9,5 km/h (2 Bft) SW 225 0 min 0,7 UV-I 7,2 C 14,6 C 9,2 km/h (2 Bft)
22.09.2012 15:55 13,6 C 19,0 C 13,5 C 14,3 C 13,9 C 0,7 C 64 % 76 % 18 % 1014,5 hPa 0,0 l/m 10,5 km/h (2 Bft) W-SW 247 0 min 0,6 UV-I 6,9 C 13,9 C 11,1 km/h (2 Bft)
22.09.2012 16:00 13,6 C 19,0 C 13,4 C 13,8 C 13,5 C 0,2 C 65 % 77 % 5 % 1014,5 hPa 0,0 l/m 10,1 km/h (2 Bft) S-SW 202 0 min 0,5 UV-I 7,1 C 13,5 C 7,9 km/h (2 Bft)
22.09.2012 16:05 13,6 C 19,0 C 13,4 C 13,9 C 13,8 C 0,3 C 65 % 77 % 8 % 1014,5 hPa 0,0 l/m 9,3 km/h (2 Bft) W-SW 247 0 min 0,5 UV-I 7,1 C 13,8 C 15,3 km/h (3 Bft)
22.09.2012 16:10 13,9 C 19,0 C 13,6 C 14,3 C 14,4 C 0,4 C 64 % 77 % 11 % 1014,5 hPa 0,0 l/m 9,7 km/h (2 Bft) SW 225 0 min 0,6 UV-I 7,2 C 14,4 C 10,3 km/h (2 Bft)
22.09.2012 16:15 14,3 C 19,0 C 14,0 C 15,5 C 16,0 C 1,2 C 63 % 76 % 32 % 1014,5 hPa 0,0 l/m 10,6 km/h (2 Bft) SW 225 0 min 0,6 UV-I 7,4 C 16,0 C 8,7 km/h (2 Bft)
22.09.2012 16:20 14,5 C 19,0 C 13,8 C 16,2 C 16,3 C 1,7 C 62 % 76 % 45 % 1014,6 hPa 0,0 l/m 9,2 km/h (2 Bft) S-SW 202 0 min 0,6 UV-I 7,3 C 16,3 C 11,9 km/h (2 Bft)
22.09.2012 16:25 14,4 C 19,0 C 14,0 C 16,6 C 16,6 C 2,2 C 61 % 74 % 58 % 1014,6 hPa 0,0 l/m 8,9 km/h (2 Bft) W-SW 247 0 min 0,5 UV-I 7,0 C 16,6 C 9,7 km/h (2 Bft)
22.09.2012 16:30 14,6 C 19,0 C 14,2 C 17,1 C 17,1 C 2,5 C 61 % 75 % 66 % 1014,6 hPa 0,0 l/m 9,2 km/h (2 Bft) S-SW 202 0 min 0,5 UV-I 7,2 C 17,1 C 6,6 km/h (2 Bft)
22.09.2012 16:35 14,6 C 19,0 C 14,4 C 17,8 C 17,8 C 3,2 C 58 % 74 % 84 % 1014,6 hPa 0,0 l/m 8,7 km/h (2 Bft) W-SW 247 0 min 0,4 UV-I 6,4 C 17,8 C 12,4 km/h (3 Bft)
22.09.2012 16:40 14,7 C 19,0 C 14,5 C 18,1 C 18,1 C 3,4 C 58 % 73 % 89 % 1014,9 hPa 0,0 l/m 8,7 km/h (2 Bft) S-SW 202 5 min 0,4 UV-I 6,5 C 18,1 C 7,1 km/h (2 Bft)
22.09.2012 16:45 14,8 C 19,0 C 14,5 C 18,1 C 18,1 C 3,3 C 58 % 73 % 87 % 1014,9 hPa 0,0 l/m 8,0 km/h (2 Bft) W-SW 247 5 min 0,3 UV-I 6,6 C 18,1 C 10,6 km/h (2 Bft)
22.09.2012 16:50 14,7 C 19,0 C 14,5 C 17,9 C 17,9 C 3,2 C 58 % 72 % 84 % 1014,9 hPa 0,0 l/m 7,4 km/h (2 Bft) SW 225 0 min 0,2 UV-I 6,5 C 17,9 C 6,1 km/h (2 Bft)
22.09.2012 16:55 14,8 C 19,0 C 14,7 C 18,1 C 18,1 C 3,3 C 59 % 72 % 87 % 1014,9 hPa 0,0 l/m 6,9 km/h (2 Bft) S-SW 202 5 min 0,1 UV-I 6,9 C 18,1 C 11,9 km/h (2 Bft)
22.09.2012 17:00 14,8 C 19,0 C 14,4 C 17,7 C 17,7 C 2,9 C 57 % 70 % 76 % 1015,1 hPa 0,0 l/m 6,1 km/h (2 Bft) S-SW 202 0 min 0,0 UV-I 6,4 C 17,7 C 10,1 km/h (2 Bft)
22.09.2012 17:05 14,7 C 19,0 C 14,7 C 17,8 C 17,8 C 3,1 C 57 % 70 % 82 % 1015,1 hPa 0,0 l/m 7,4 km/h (2 Bft) W-NW 292 5 min 0,0 UV-I 6,3 C 17,8 C 5,1 km/h (1 Bft)
22.09.2012 17:10 14,6 C 19,0 C 14,4 C 17,5 C 17,5 C 2,9 C 56 % 68 % 76 % 1015,1 hPa 0,0 l/m 8,2 km/h (2 Bft) W-SW 247 0 min 0,1 UV-I 5,9 C 17,5 C 7,1 km/h (2 Bft)
22.09.2012 17:15 14,3 C 19,0 C 14,1 C 15,8 C 15,8 C 1,5 C 58 % 69 % 39 % 1015,1 hPa 0,0 l/m 8,0 km/h (2 Bft) SW 225 0 min 0,1 UV-I 6,2 C 15,8 C 6,6 km/h (2 Bft)
22.09.2012 17:20 14,2 C 19,0 C 14,0 C 15,7 C 15,7 C 1,5 C 58 % 68 % 39 % 1015,4 hPa 0,0 l/m 7,7 km/h (2 Bft) SO 135 0 min 0,1 UV-I 6,1 C 15,7 C 9,7 km/h (2 Bft)
22.09.2012 17:25 14,0 C 19,0 C 13,7 C 14,7 C 14,7 C 0,7 C 59 % 69 % 18 % 1015,4 hPa 0,0 l/m 7,1 km/h (2 Bft) W-SW 247 0 min 0,0 UV-I 6,1 C 14,7 C 4,8 km/h (1 Bft)
22.09.2012 17:30 13,9 C 19,0 C 13,6 C 14,4 C 14,4 C 0,5 C 60 % 69 % 13 % 1015,4 hPa 0,0 l/m 6,3 km/h (2 Bft) S-SW 202 0 min 0,0 UV-I 6,3 C 14,4 C 10,0 km/h (2 Bft)
22.09.2012 17:35 13,9 C 19,0 C 13,5 C 14,2 C 14,2 C 0,3 C 60 % 70 % 8 % 1015,4 hPa 0,0 l/m 6,1 km/h (2 Bft) W-NW 292 0 min 0,0 UV-I 6,3 C 14,2 C 7,7 km/h (2 Bft)
22.09.2012 17:40 13,7 C 19,0 C 13,5 C 14,1 C 14,1 C 0,4 C 60 % 70 % 11 % 1015,6 hPa 0,0 l/m 6,3 km/h (2 Bft) W-SW 247 0 min 0,0 UV-I 6,1 C 14,1 C 5,8 km/h (2 Bft)
22.09.2012 17:45 13,7 C 19,0 C 13,6 C 14,5 C 14,5 C 0,8 C 61 % 71 % 21 % 1015,6 hPa 0,0 l/m 5,6 km/h (1 Bft) NW 315 0 min 0,0 UV-I 6,3 C 14,5 C 6,8 km/h (2 Bft)
22.09.2012 17:50 13,9 C 19,0 C 13,6 C 15,1 C 15,1 C 1,2 C 61 % 71 % 32 % 1015,6 hPa 0,0 l/m 5,3 km/h (1 Bft) S-SW 202 0 min 0,0 UV-I 6,5 C 15,1 C 5,0 km/h (1 Bft)
22.09.2012 17:55 13,9 C 19,0 C 13,5 C 15,4 C 15,4 C 1,5 C 61 % 71 % 39 % 1015,6 hPa 0,0 l/m 5,5 km/h (1 Bft) W-SW 247 0 min 0,0 UV-I 6,5 C 15,4 C 12,2 km/h (2 Bft)
22.09.2012 18:00 13,8 C 19,0 C 13,4 C 15,1 C 15,1 C 1,3 C 62 % 71 % 34 % 1015,7 hPa 0,0 l/m 5,5 km/h (1 Bft) SW 225 0 min 0,0 UV-I 6,6 C 15,1 C 10,3 km/h (2 Bft)
22.09.2012 18:05 13,8 C 19,0 C 13,4 C 14,6 C 14,6 C 0,8 C 61 % 71 % 21 % 1015,7 hPa 0,0 l/m 6,8 km/h (2 Bft) W-NW 292 0 min 0,0 UV-I 6,4 C 14,6 C 7,6 km/h (2 Bft)
22.09.2012 18:10 13,7 C 19,0 C 13,3 C 14,3 C 14,3 C 0,6 C 61 % 71 % 16 % 1015,7 hPa 0,0 l/m 6,8 km/h (2 Bft) SW 225 0 min 0,0 UV-I 6,3 C 14,3 C 8,0 km/h (2 Bft)
22.09.2012 18:15 13,6 C 19,0 C 13,3 C 14,0 C 14,0 C 0,4 C 61 % 71 % 11 % 1015,7 hPa 0,0 l/m 6,8 km/h (2 Bft) W 270 0 min 0,0 UV-I 6,2 C 14,0 C 7,6 km/h (2 Bft)
22.09.2012 18:20 13,7 C 19,0 C 13,3 C 14,2 C 14,2 C 0,5 C 61 % 70 % 13 % 1016,4 hPa 0,0 l/m 6,4 km/h (2 Bft) S-SW 202 0 min 0,0 UV-I 6,3 C 14,2 C 3,2 km/h (1 Bft)
22.09.2012 18:25 13,7 C 19,0 C 13,3 C 14,6 C 14,6 C 0,9 C 61 % 71 % 24 % 1016,4 hPa 0,0 l/m 4,8 km/h (1 Bft) N-NW 337 0 min 0,0 UV-I 6,3 C 14,6 C 5,6 km/h (1 Bft)
22.09.2012 18:30 13,8 C 19,0 C 13,5 C 15,2 C 15,2 C 1,4 C 60 % 70 % 37 % 1016,4 hPa 0,0 l/m 4,8 km/h (1 Bft) SW 225 5 min 0,0 UV-I 6,2 C 15,2 C 9,5 km/h (2 Bft)
22.09.2012 18:35 13,7 C 19,0 C 13,3 C 15,1 C 15,1 C 1,4 C 61 % 70 % 37 % 1016,4 hPa 0,0 l/m 4,5 km/h (1 Bft) W-SW 247 5 min 0,0 UV-I 6,3 C 15,1 C 5,0 km/h (1 Bft)
22.09.2012 18:46 13,3 C 19,0 C 12,8 C 13,4 C 13,4 C 0,1 C 62 % 71 % 3 % 1016,5 hPa 0,0 l/m 4,2 km/h (1 Bft) N 0 0 min 0,0 UV-I 6,2 C 13,4 C 6,1 km/h (2 Bft)
22.09.2012 18:55 12,9 C 19,0 C 12,5 C 12,7 C 12,3 C 0,0 C 63 % 72 % 0 % 1016,5 hPa 0,0 l/m 3,5 km/h (1 Bft) W-SW 247 0 min 0,0 UV-I 6,0 C 12,3 C 3,7 km/h (1 Bft)
22.09.2012 19:00 12,9 C 19,0 C 12,4 C 12,6 C 11,9 C 0,0 C 64 % 73 % 0 % 1017,0 hPa 0,0 l/m 2,3 km/h (1 Bft) SW 225 0 min 0,0 UV-I 6,3 C 11,9 C 2,1 km/h (1 Bft)
22.09.2012 19:05 12,7 C 19,0 C 12,3 C 12,3 C 11,5 C 0,0 C 64 % 73 % 0 % 1017,0 hPa 0,0 l/m 1,4 km/h (1 Bft) SW 225 0 min 0,0 UV-I 6,1 C 11,5 C 2,1 km/h (1 Bft)
22.09.2012 19:10 12,4 C 19,0 C 12,1 C 12,0 C 11,3 C 0,0 C 65 % 74 % 0 % 1017,0 hPa 0,0 l/m 1,1 km/h (1 Bft) SW 225 0 min 0,0 UV-I 6,0 C 11,3 C 0,0 km/h (0 Bft)
22.09.2012 19:15 12,2 C 19,0 C 11,9 C 11,7 C 10,8 C 0,0 C 66 % 74 % 0 % 1017,0 hPa 0,0 l/m 0,8 km/h (0 Bft) W-SW 247 0 min 0,0 UV-I 6,0 C 10,8 C 2,4 km/h (1 Bft)
22.09.2012 19:20 12,0 C 19,0 C 11,9 C 11,6 C 10,8 C 0,0 C 67 % 75 % 0 % 1017,3 hPa 0,0 l/m 0,5 km/h (0 Bft) W-SW 247 0 min 0,0 UV-I 6,1 C 10,8 C 0,0 km/h (0 Bft)
22.09.2012 19:25 11,9 C 19,0 C 11,6 C 11,4 C 10,4 C 0,0 C 68 % 76 % 0 % 1017,3 hPa 0,0 l/m 0,2 km/h (0 Bft) W-SW 247 0 min 0,0 UV-I 6,2 C 10,4 C 0,0 km/h (0 Bft)
22.09.2012 19:30 11,6 C 19,0 C 11,3 C 11,1 C 10,0 C 0,0 C 68 % 76 % 0 % 1017,3 hPa 0,0 l/m 0,0 km/h (0 Bft) SW 225 0 min 0,0 UV-I 5,9 C 10,0 C 0,0 km/h (0 Bft)
22.09.2012 19:35 11,3 C 19,0 C 10,9 C 10,7 C 9,6 C 0,0 C 69 % 77 % 0 % 1017,3 hPa 0,0 l/m 0,0 km/h (0 Bft) SW 225 0 min 0,0 UV-I 5,8 C 9,6 C 0,0 km/h (0 Bft)
22.09.2012 19:40 11,1 C 19,0 C 10,8 C 10,5 C 9,3 C 0,0 C 70 % 77 % 0 % 1017,6 hPa 0,0 l/m 0,0 km/h (0 Bft) SW 225 0 min 0,0 UV-I 5,8 C 9,3 C 0,0 km/h (0 Bft)
22.09.2012 19:45 10,8 C 19,1 C 10,4 C 10,2 C 9,0 C 0,0 C 71 % 78 % 0 % 1017,6 hPa 0,0 l/m 0,0 km/h (0 Bft) SW 225 0 min 0,0 UV-I 5,8 C 9,0 C 0,0 km/h (0 Bft)
22.09.2012 19:50 10,5 C 19,1 C 10,3 C 9,9 C 8,8 C 0,0 C 71 % 79 % 0 % 1017,6 hPa 0,0 l/m 0,0 km/h (0 Bft) SW 225 0 min 0,0 UV-I 5,5 C 8,8 C 0,0 km/h (0 Bft)
22.09.2012 19:55 10,2 C 19,2 C 10,0 C 9,7 C 8,6 C 0,0 C 73 % 79 % 0 % 1017,6 hPa 0,0 l/m 0,0 km/h (0 Bft) O-NO 67 0 min 0,0 UV-I 5,6 C 8,6 C 0,0 km/h (0 Bft)
22.09.2012 20:00 10,1 C 19,2 C 10,0 C 9,5 C 8,4 C 0,0 C 74 % 80 % 0 % 1017,9 hPa 0,0 l/m 0,0 km/h (0 Bft) O 90 0 min 0,0 UV-I 5,7 C 8,4 C 0,0 km/h (0 Bft)
22.09.2012 20:05 9,9 C 19,2 C 9,8 C 9,4 C 8,3 C 0,0 C 75 % 80 % 0 % 1017,9 hPa 0,0 l/m 0,0 km/h (0 Bft) O 90 0 min 0,0 UV-I 5,7 C 8,3 C 0,0 km/h (0 Bft)
22.09.2012 20:10 9,9 C 19,2 C 9,7 C 9,3 C 8,1 C 0,0 C 76 % 81 % 0 % 1017,9 hPa 0,0 l/m 0,0 km/h (0 Bft) O 90 0 min 0,0 UV-I 5,9 C 8,1 C 0,0 km/h (0 Bft)
22.09.2012 20:15 9,6 C 19,2 C 9,6 C 9,0 C 7,9 C 0,0 C 77 % 82 % 0 % 1017,9 hPa 0,0 l/m 0,0 km/h (0 Bft) O-NO 67 0 min 0,0 UV-I 5,8 C 7,9 C 0,0 km/h (0 Bft)
22.09.2012 20:20 9,4 C 19,2 C 9,5 C 8,8 C 7,7 C 0,0 C 77 % 82 % 0 % 1018,2 hPa 0,0 l/m 0,0 km/h (0 Bft) O-NO 67 0 min 0,0 UV-I 5,6 C 7,7 C 0,0 km/h (0 Bft)
22.09.2012 20:25 9,2 C 19,2 C 9,3 C 8,6 C 7,5 C 0,0 C 78 % 82 % 0 % 1018,2 hPa 0,0 l/m 0,0 km/h (0 Bft) O-NO 67 0 min 0,0 UV-I 5,6 C 7,5 C 0,0 km/h (0 Bft)
22.09.2012 20:30 9,0 C 19,2 C 9,2 C 8,4 C 7,2 C 0,0 C 78 % 82 % 0 % 1018,2 hPa 0,0 l/m 0,0 km/h (0 Bft) O 90 0 min 0,0 UV-I 5,4 C 7,2 C 0,0 km/h (0 Bft)
22.09.2012 20:35 8,8 C 19,2 C 9,0 C 8,2 C 7,1 C 0,0 C 79 % 83 % 0 % 1018,2 hPa 0,0 l/m 0,0 km/h (0 Bft) O-NO 67 0 min 0,0 UV-I 5,4 C 7,1 C 0,0 km/h (0 Bft)
22.09.2012 20:40 8,5 C 19,2 C 8,9 C 8,0 C 7,0 C 0,0 C 79 % 83 % 0 % 1018,8 hPa 0,0 l/m 0,0 km/h (0 Bft) O-NO 67 0 min 0,0 UV-I 5,1 C 7,0 C 0,0 km/h (0 Bft)
22.09.2012 20:45 8,3 C 19,2 C 8,9 C 7,8 C 6,9 C 0,0 C 80 % 84 % 0 % 1018,8 hPa 0,0 l/m 0,0 km/h (0 Bft) O-NO 67 0 min 0,0 UV-I 5,1 C 6,9 C 0,0 km/h (0 Bft)
22.09.2012 20:50 8,1 C 19,2 C 8,7 C 7,7 C 6,8 C 0,0 C 80 % 84 % 0 % 1018,8 hPa 0,0 l/m 0,0 km/h (0 Bft) O 90 0 min 0,0 UV-I 4,9 C 6,8 C 0,0 km/h (0 Bft)
22.09.2012 20:55 7,9 C 19,2 C 8,5 C 7,5 C 6,6 C 0,0 C 80 % 84 % 0 % 1018,8 hPa 0,0 l/m 0,0 km/h (0 Bft) O-NO 67 0 min 0,0 UV-I 4,7 C 6,6 C 0,0 km/h (0 Bft)
22.09.2012 21:00 7,8 C 19,2 C 8,5 C 7,4 C 6,6 C 0,0 C 80 % 84 % 0 % 1018,7 hPa 0,0 l/m 0,0 km/h (0 Bft) O-NO 67 0 min 0,0 UV-I 4,6 C 6,6 C 0,0 km/h (0 Bft)
22.09.2012 21:05 7,6 C 19,1 C 8,4 C 7,2 C 6,4 C 0,0 C 81 % 85 % 0 % 1018,7 hPa 0,0 l/m 0,2 km/h (0 Bft) W-SW 247 0 min 0,0 UV-I 4,6 C 6,4 C 0,0 km/h (0 Bft)
22.09.2012 21:10 7,5 C 19,2 C 8,4 C 7,1 C 6,4 C 0,0 C 81 % 85 % 0 % 1018,7 hPa 0,0 l/m 0,3 km/h (0 Bft) S-SW 202 0 min 0,0 UV-I 4,5 C 6,4 C 0,0 km/h (0 Bft)
22.09.2012 21:15 7,3 C 19,2 C 8,3 C 7,0 C 6,4 C 0,0 C 81 % 85 % 0 % 1018,7 hPa 0,0 l/m 0,2 km/h (0 Bft) O-NO 67 0 min 0,0 UV-I 4,3 C 6,4 C 0,0 km/h (0 Bft)
22.09.2012 21:20 7,1 C 19,2 C 8,2 C 6,9 C 6,4 C 0,0 C 82 % 85 % 0 % 1019,2 hPa 0,0 l/m 0,0 km/h (0 Bft) O-SO 112 0 min 0,0 UV-I 4,2 C 6,4 C 0,0 km/h (0 Bft)
22.09.2012 21:25 6,9 C 19,4 C 8,0 C 6,7 C 6,4 C 0,0 C 82 % 86 % 0 % 1019,2 hPa 0,0 l/m 0,0 km/h (0 Bft) O-SO 112 0 min 0,0 UV-I 4,0 C 6,4 C 0,0 km/h (0 Bft)
22.09.2012 21:30 6,7 C 19,4 C 7,9 C 6,6 C 6,3 C 0,0 C 83 % 86 % 0 % 1019,2 hPa 0,0 l/m 0,2 km/h (0 Bft) O 90 0 min 0,0 UV-I 4,0 C 6,3 C 0,0 km/h (0 Bft)
22.09.2012 21:35 6,6 C 19,4 C 7,9 C 6,5 C 6,4 C 0,0 C 84 % 86 % 0 % 1019,2 hPa 0,0 l/m 0,2 km/h (0 Bft) O-NO 67 0 min 0,0 UV-I 4,1 C 6,4 C 0,0 km/h (0 Bft)
22.09.2012 21:40 6,7 C 19,4 C 7,9 C 6,6 C 6,4 C 0,0 C 84 % 86 % 0 % 1019,1 hPa 0,0 l/m 0,0 km/h (0 Bft) O-NO 67 0 min 0,0 UV-I 4,2 C 6,4 C 1,6 km/h (1 Bft)
22.09.2012 21:45 6,6 C 19,3 C 7,7 C 6,5 C 6,4 C 0,0 C 84 % 87 % 0 % 1019,1 hPa 0,0 l/m 0,0 km/h (0 Bft) O-NO 67 0 min 0,0 UV-I 4,1 C 6,4 C 0,0 km/h (0 Bft)
22.09.2012 21:50 6,6 C 19,3 C 7,7 C 6,5 C 6,3 C 0,0 C 84 % 87 % 0 % 1019,1 hPa 0,0 l/m 0,0 km/h (0 Bft) O-NO 67 0 min 0,0 UV-I 4,1 C 6,3 C 0,0 km/h (0 Bft)
22.09.2012 21:55 6,4 C 19,3 C 7,6 C 6,3 C 6,1 C 0,0 C 84 % 87 % 0 % 1019,1 hPa 0,0 l/m 0,0 km/h (0 Bft) O-NO 67 0 min 0,0 UV-I 3,9 C 6,1 C 0,0 km/h (0 Bft)
22.09.2012 22:00 6,4 C 19,3 C 7,7 C 6,2 C 5,9 C 0,0 C 84 % 87 % 0 % 1019,9 hPa 0,0 l/m 0,0 km/h (0 Bft) O-NO 67 0 min 0,0 UV-I 3,9 C 5,9 C 0,0 km/h (0 Bft)
22.09.2012 22:05 6,3 C 19,3 C 7,5 C 6,2 C 5,9 C 0,0 C 85 % 87 % 0 % 1019,9 hPa 0,0 l/m 0,0 km/h (0 Bft) O-NO 67 0 min 0,0 UV-I 4,0 C 5,9 C 0,0 km/h (0 Bft)
22.09.2012 22:10 6,3 C 19,3 C 7,5 C 6,2 C 5,9 C 0,0 C 85 % 87 % 0 % 1019,9 hPa 0,0 l/m 0,0 km/h (0 Bft) O-NO 67 0 min 0,0 UV-I 4,0 C 5,9 C 0,0 km/h (0 Bft)
22.09.2012 22:15 6,2 C 19,3 C 7,5 C 6,1 C 5,9 C 0,0 C 85 % 87 % 0 % 1019,9 hPa 0,0 l/m 0,0 km/h (0 Bft) O-SO 112 0 min 0,0 UV-I 3,9 C 5,9 C 0,0 km/h (0 Bft)
22.09.2012 22:20 6,1 C 19,3 C 7,3 C 6,0 C 5,8 C 0,0 C 85 % 87 % 0 % 1019,9 hPa 0,0 l/m 0,0 km/h (0 Bft) O 90 0 min 0,0 UV-I 3,8 C 5,8 C 0,0 km/h (0 Bft)
22.09.2012 22:25 6,1 C 19,3 C 7,3 C 5,9 C 5,6 C 0,0 C 85 % 87 % 0 % 1019,9 hPa 0,0 l/m 0,0 km/h (0 Bft) O 90 0 min 0,0 UV-I 3,8 C 5,6 C 0,0 km/h (0 Bft)
22.09.2012 22:30 6,0 C 19,3 C 7,2 C 5,9 C 5,7 C 0,0 C 85 % 87 % 0 % 1019,9 hPa 0,0 l/m 0,0 km/h (0 Bft) O 90 0 min 0,0 UV-I 3,7 C 5,7 C 0,0 km/h (0 Bft)
22.09.2012 22:35 6,0 C 19,3 C 7,2 C 5,9 C 5,8 C 0,0 C 85 % 88 % 0 % 1019,9 hPa 0,0 l/m 0,0 km/h (0 Bft) O-NO 67 0 min 0,0 UV-I 3,7 C 5,8 C 0,0 km/h (0 Bft)
22.09.2012 22:40 5,9 C 19,2 C 7,2 C 5,9 C 5,8 C 0,0 C 85 % 88 % 0 % 1020,0 hPa 0,0 l/m 0,0 km/h (0 Bft) O-SO 112 0 min 0,0 UV-I 3,6 C 5,8 C 0,0 km/h (0 Bft)
22.09.2012 22:45 5,9 C 19,2 C 7,2 C 5,8 C 5,6 C 0,0 C 85 % 88 % 0 % 1020,0 hPa 0,0 l/m 0,3 km/h (0 Bft) SW 225 0 min 0,0 UV-I 3,6 C 5,6 C 0,0 km/h (0 Bft)
22.09.2012 22:50 5,9 C 19,2 C 7,1 C 5,8 C 5,5 C 0,0 C 85 % 88 % 0 % 1020,0 hPa 0,0 l/m 0,3 km/h (0 Bft) SW 225 0 min 0,0 UV-I 3,6 C 5,5 C 0,0 km/h (0 Bft)
22.09.2012 22:55 5,7 C 19,2 C 6,9 C 5,6 C 5,3 C 0,0 C 85 % 88 % 0 % 1020,0 hPa 0,0 l/m 0,0 km/h (0 Bft) SW 225 0 min 0,0 UV-I 3,4 C 5,3 C 0,0 km/h (0 Bft)
22.09.2012 23:00 5,6 C 19,2 C 6,9 C 5,4 C 5,1 C 0,0 C 85 % 88 % 0 % 1020,2 hPa 0,0 l/m 0,0 km/h (0 Bft) O 90 0 min 0,0 UV-I 3,3 C 5,1 C 0,0 km/h (0 Bft)
22.09.2012 23:05 5,5 C 19,2 C 6,8 C 5,4 C 5,2 C 0,0 C 85 % 88 % 0 % 1020,2 hPa 0,0 l/m 0,0 km/h (0 Bft) O-NO 67 0 min 0,0 UV-I 3,2 C 5,2 C 0,0 km/h (0 Bft)
22.09.2012 23:10 5,5 C 19,2 C 6,7 C 5,4 C 5,2 C 0,0 C 85 % 88 % 0 % 1020,2 hPa 0,0 l/m 0,0 km/h (0 Bft) O 90 0 min 0,0 UV-I 3,2 C 5,2 C 0,0 km/h (0 Bft)
22.09.2012 23:15 5,5 C 19,2 C 6,7 C 5,4 C 5,3 C 0,0 C 85 % 88 % 0 % 1020,2 hPa 0,0 l/m 0,0 km/h (0 Bft) O 90 0 min 0,0 UV-I 3,2 C 5,3 C 0,0 km/h (0 Bft)
22.09.2012 23:20 5,3 C 19,2 C 6,7 C 5,4 C 5,4 C 0,1 C 86 % 88 % 0 % 1020,4 hPa 0,0 l/m 0,0 km/h (0 Bft) O-NO 67 0 min 0,0 UV-I 3,2 C 5,4 C 0,0 km/h (0 Bft)
22.09.2012 23:25 5,4 C 19,1 C 6,7 C 5,4 C 5,4 C 0,0 C 86 % 88 % 0 % 1020,4 hPa 0,0 l/m 0,0 km/h (0 Bft) O-SO 112 0 min 0,0 UV-I 3,3 C 5,4 C 0,0 km/h (0 Bft)
22.09.2012 23:30 5,3 C 19,1 C 6,8 C 5,3 C 5,3 C 0,0 C 86 % 88 % 0 % 1020,4 hPa 0,0 l/m 0,2 km/h (0 Bft) SW 225 0 min 0,0 UV-I 3,2 C 5,3 C 1,9 km/h (1 Bft)
22.09.2012 23:35 5,3 C 19,1 C 6,8 C 5,2 C 5,1 C 0,0 C 86 % 88 % 0 % 1020,4 hPa 0,0 l/m 0,2 km/h (0 Bft) SW 225 0 min 0,0 UV-I 3,2 C 5,1 C 0,0 km/h (0 Bft)
22.09.2012 23:40 5,1 C 19,1 C 6,7 C 5,1 C 5,0 C 0,0 C 86 % 88 % 0 % 1020,4 hPa 0,0 l/m 0,2 km/h (0 Bft) SW 225 0 min 0,0 UV-I 3,0 C 5,0 C 0,0 km/h (0 Bft)
22.09.2012 23:45 5,0 C 19,0 C 6,7 C 4,9 C 4,8 C 0,0 C 86 % 88 % 0 % 1020,4 hPa 0,0 l/m 0,2 km/h (0 Bft) SW 225 0 min 0,0 UV-I 2,9 C 4,8 C 0,0 km/h (0 Bft)
22.09.2012 23:50 5,0 C 19,0 C 6,5 C 4,9 C 4,7 C 0,0 C 86 % 88 % 0 % 1020,4 hPa 0,0 l/m 0,0 km/h (0 Bft) S 180 0 min 0,0 UV-I 2,9 C 4,7 C 0,0 km/h (0 Bft)
22.09.2012 23:55 4,8 C 19,1 C 6,4 C 4,7 C 4,5 C 0,0 C 86 % 88 % 0 % 1020,4 hPa 0,0 l/m 0,0 km/h (0 Bft) W-SW 247 0 min 0,0 UV-I 2,7 C 4,5 C 0,0 km/h (0 Bft)
_ Min-Zeit 23:55 12:00 23:55 23:55 23:55 06:05 17:10 17:10 00:00 06:20 - 00:00 - - - 00:00 23:55 23:55 00:00
Minimum _ 4,8 C 18,9 C 6,4 C 4,7 C 4,5 C 0,0 C 56 % 68 % 0 % 1010,2 hPa - 0,0 km/h (0 Bft) - - - 0,0 UV-I 2,7 C 4,5 C 0,0 km/h (0 Bft)
_ Max-Zeit 13:00 03:25 12:25 13:05 13:05 14:30 09:20 08:25 13:05 23:20 03:10 13:35 - - 07:10 12:55 09:55 13:05 13:25
Maximum _ 15,2 C 19,6 C 15,0 C 19,0 C 19,0 C 3,9 C 92 % 96 % 100 % 1020,4 hPa 0,7 l/m 13,7 km/h
W (3 Bft)
- - 5 min 2,8 UV-I 10,3 C 19,0 C 33,3 km/h
S-SO (5 Bft)
Durchschnitt _ 10,8 C 19,2 C 11,2 C 11,6 C 11,4 C 0,9 C 78 % 86 % 18 % 1013,6 hPa #2,1 l/m 3,5 km/h (1 Bft) W-SW - #1:05 h 0,9 UV-I 7,0 C 11,4 C 4,4 km/h (1 Bft)
2012 www.wetterstation-wechselburg.de